createdAt,value
2018-07-10T00:02:40.176Z,18.06
2018-07-10T00:05:50.585Z,18.16
2018-07-10T00:08:45.507Z,18.28
2018-07-10T00:11:25.963Z,18.19
2018-07-10T00:13:55.364Z,18.27
2018-07-10T00:16:24.661Z,18.37
2018-07-10T00:18:54.668Z,18.26
2018-07-10T00:21:23.611Z,18.31
2018-07-10T00:23:52.746Z,18.24
2018-07-10T00:26:21.897Z,18.32
2018-07-10T00:28:51.036Z,18.33
2018-07-10T00:31:20.184Z,18.36
2018-07-10T00:33:49.329Z,18.48
2018-07-10T00:36:18.508Z,18.34
2018-07-10T00:39:01.372Z,18.34
2018-07-10T00:41:33.418Z,18.21
2018-07-10T00:44:03.235Z,18.26
2018-07-10T00:46:35.411Z,18.24
2018-07-10T00:49:04.594Z,18.20
2018-07-10T00:51:37.112Z,18.12
2018-07-10T00:54:06.275Z,18.25
2018-07-10T00:56:35.419Z,18.19
2018-07-10T00:59:06.651Z,18.28
2018-07-10T01:01:36.224Z,18.23
2018-07-10T01:04:05.150Z,18.21
2018-07-10T01:06:34.292Z,18.23
2018-07-10T01:09:03.501Z,18.25
2018-07-10T01:11:32.430Z,18.29
2018-07-10T01:14:01.570Z,18.16
2018-07-10T01:16:38.277Z,17.95
2018-07-10T01:19:12.941Z,18.04
2018-07-10T01:21:43.080Z,18.06
2018-07-10T01:24:12.224Z,18.05
2018-07-10T01:26:42.328Z,18.05
2018-07-10T01:29:16.827Z,18.09
2018-07-10T01:31:46.881Z,18.09
2018-07-10T01:34:16.268Z,18.09
2018-07-10T01:36:45.431Z,18.01
2018-07-10T01:39:14.770Z,17.99
2018-07-10T01:41:44.137Z,18.05
2018-07-10T01:44:13.292Z,18.10
2018-07-10T01:46:42.735Z,18.02
2018-07-10T01:49:11.890Z,18.01
2018-07-10T01:51:41.032Z,17.82
2018-07-10T01:54:10.188Z,17.73
2018-07-10T01:56:39.384Z,17.71
2018-07-10T01:59:08.517Z,17.64
2018-07-10T02:01:37.668Z,17.71
2018-07-10T02:04:07.979Z,17.63
2018-07-10T02:06:37.135Z,17.45
2018-07-10T02:09:06.440Z,17.43
2018-07-10T02:11:35.580Z,17.33
2018-07-10T02:14:04.960Z,17.26
2018-07-10T02:16:34.045Z,17.17
2018-07-10T02:19:03.211Z,17.29
2018-07-10T02:21:32.355Z,17.35
2018-07-10T02:24:01.284Z,17.36
2018-07-10T02:26:30.424Z,17.39
2018-07-10T02:28:59.560Z,17.49
2018-07-10T02:31:28.752Z,17.39
2018-07-10T02:33:57.896Z,17.27
2018-07-10T02:36:27.060Z,17.29
2018-07-10T02:38:59.513Z,17.36
2018-07-10T02:41:28.654Z,17.44
2018-07-10T02:44:05.539Z,17.49
2018-07-10T02:46:36.620Z,17.59
2018-07-10T02:49:14.888Z,17.50
2018-07-10T02:51:58.154Z,17.51
2018-07-10T02:54:31.274Z,17.49
2018-07-10T02:57:00.437Z,17.40
2018-07-10T02:59:36.596Z,17.44
2018-07-10T03:02:07.468Z,17.41
2018-07-10T03:04:40.141Z,17.36
2018-07-10T03:07:12.485Z,17.31
2018-07-10T03:09:41.619Z,17.10
2018-07-10T03:12:11.423Z,17.18
2018-07-10T03:14:40.917Z,17.19
2018-07-10T03:17:10.545Z,17.27
2018-07-10T03:19:39.727Z,17.25
2018-07-10T03:22:08.878Z,17.22
2018-07-10T03:24:38.008Z,17.24
2018-07-10T03:27:07.164Z,17.10
2018-07-10T03:29:36.304Z,17.15
2018-07-10T03:32:05.448Z,17.20
2018-07-10T03:34:34.604Z,17.18
2018-07-10T03:37:03.757Z,17.15
2018-07-10T03:39:32.896Z,17.23
2018-07-10T03:42:02.033Z,17.23
2018-07-10T03:44:31.184Z,17.31
2018-07-10T03:47:00.320Z,17.24
2018-07-10T03:49:29.792Z,17.01
2018-07-10T03:51:59.072Z,17.09
2018-07-10T03:54:28.220Z,17.13
2018-07-10T03:56:57.384Z,16.90
2018-07-10T03:59:26.524Z,16.92
2018-07-10T04:01:56.027Z,16.99
2018-07-10T04:04:25.256Z,16.88
2018-07-10T04:06:54.628Z,17.04
2018-07-10T04:09:23.843Z,17.04
2018-07-10T04:11:53.080Z,16.89
2018-07-10T04:14:24.259Z,16.89
2018-07-10T04:16:53.955Z,17.00
2018-07-10T04:19:23.940Z,17.15
2018-07-10T04:21:55.399Z,17.25
2018-07-10T04:24:24.820Z,17.21
2018-07-10T04:27:31.099Z,17.11
2018-07-10T04:31:17.252Z,17.07
2018-07-10T04:33:49.089Z,17.06
2018-07-10T04:36:19.232Z,17.10
2018-07-10T04:38:55.148Z,17.01
2018-07-10T04:41:28.694Z,17.07
2018-07-10T04:44:07.897Z,17.13
2018-07-10T04:46:43.308Z,17.10
2018-07-10T04:49:56.044Z,16.90
2018-07-10T04:52:29.124Z,16.98
2018-07-10T04:55:15.929Z,16.80
2018-07-10T04:57:56.361Z,16.91
2018-07-10T05:00:27.432Z,17.00
2018-07-10T05:02:57.699Z,17.11
2018-07-10T05:05:28.771Z,17.12
2018-07-10T05:07:57.903Z,17.24
2018-07-10T05:10:27.557Z,17.32
2018-07-10T05:12:57.054Z,17.38
2018-07-10T05:15:26.189Z,17.26
2018-07-10T05:17:56.981Z,17.51
2018-07-10T05:20:26.820Z,17.58
2018-07-10T05:22:55.977Z,17.50
2018-07-10T05:25:25.121Z,17.78
2018-07-10T05:27:54.281Z,17.71
2018-07-10T05:30:23.415Z,17.62
2018-07-10T05:32:52.552Z,17.73
2018-07-10T05:35:21.712Z,17.93
2018-07-10T05:37:51.148Z,18.16
2018-07-10T05:40:26.647Z,18.08
2018-07-10T05:42:55.833Z,17.78
2018-07-10T05:45:26.139Z,18.16
2018-07-10T05:48:01.177Z,18.14
2018-07-10T05:50:36.013Z,18.06
2018-07-10T05:53:09.477Z,17.80
2018-07-10T05:55:45.516Z,17.87
2018-07-10T05:58:14.727Z,17.88
2018-07-10T06:00:44.023Z,18.02
2018-07-10T06:03:13.229Z,17.80
2018-07-10T06:05:42.389Z,17.76
2018-07-10T06:08:13.873Z,17.66
2018-07-10T06:10:43.334Z,17.41
2018-07-10T06:13:12.486Z,17.19
2018-07-10T06:15:41.624Z,17.29
2018-07-10T06:18:10.777Z,17.31
2018-07-10T06:20:42.033Z,17.25
2018-07-10T06:23:11.656Z,17.34
2018-07-10T06:25:41.093Z,17.25
2018-07-10T06:28:15.840Z,17.35
2018-07-10T06:30:44.985Z,17.11
2018-07-10T06:33:27.403Z,16.94
2018-07-10T06:36:21.577Z,16.87
2018-07-10T06:39:06.388Z,16.90
2018-07-10T06:41:39.128Z,17.02
2018-07-10T06:44:08.289Z,16.85
2018-07-10T06:46:42.928Z,16.96
2018-07-10T06:49:47.493Z,17.03
2018-07-10T06:52:19.207Z,16.93
2018-07-10T06:55:11.455Z,16.92
2018-07-10T06:57:51.919Z,16.67
2018-07-10T07:00:20.845Z,16.72
2018-07-10T07:02:50.076Z,16.62
2018-07-10T07:05:19.230Z,16.54
2018-07-10T07:07:48.376Z,16.62
2018-07-10T07:10:18.005Z,16.63
2018-07-10T07:12:47.516Z,16.71
2018-07-10T07:15:20.003Z,16.65
2018-07-10T07:17:51.642Z,16.92
2018-07-10T07:20:22.268Z,16.93
2018-07-10T07:22:51.805Z,17.18
2018-07-10T07:25:20.944Z,17.35
2018-07-10T07:27:50.161Z,17.29
2018-07-10T07:30:19.319Z,17.24
2018-07-10T07:32:49.266Z,17.12
2018-07-10T07:35:18.432Z,16.81
2018-07-10T07:37:47.765Z,16.49
2018-07-10T07:40:16.932Z,16.59
2018-07-10T07:42:46.103Z,16.35
2018-07-10T07:45:15.249Z,16.20
2018-07-10T07:47:44.795Z,16.04
2018-07-10T07:50:13.960Z,15.94
2018-07-10T07:52:43.200Z,15.79
2018-07-10T07:55:13.379Z,15.79
2018-07-10T07:57:42.540Z,15.77
2018-07-10T08:00:11.700Z,15.84
2018-07-10T08:02:41.107Z,16.00
2018-07-10T08:05:10.292Z,16.04
2018-07-10T08:07:39.454Z,15.63
2018-07-10T08:10:08.595Z,15.91
2018-07-10T08:12:37.752Z,15.87
2018-07-10T08:15:06.888Z,15.96
2018-07-10T08:17:37.149Z,15.71
2018-07-10T08:20:07.302Z,15.69
2018-07-10T08:22:36.537Z,15.86
2018-07-10T08:25:06.528Z,16.07
2018-07-10T08:27:37.079Z,15.88
2018-07-10T08:30:06.694Z,16.08
2018-07-10T08:32:37.724Z,16.05
2018-07-10T08:35:07.016Z,16.08
2018-07-10T08:37:36.203Z,16.09
2018-07-10T08:40:05.367Z,16.05
2018-07-10T08:42:34.534Z,16.18
2018-07-10T08:45:05.004Z,16.33
2018-07-10T08:47:35.046Z,16.22
2018-07-10T08:50:04.209Z,16.34
2018-07-10T08:52:33.391Z,16.38
2018-07-10T08:55:02.528Z,16.96
2018-07-10T08:57:31.693Z,16.71
2018-07-10T09:00:01.059Z,16.07
2018-07-10T09:02:30.229Z,16.02
2018-07-10T09:04:59.397Z,16.26
2018-07-10T09:07:28.550Z,16.51
2018-07-10T09:09:57.717Z,16.20
2018-07-10T09:15:18.531Z,16.22
2018-07-10T09:17:47.487Z,16.02
2018-07-10T09:20:27.815Z,16.13
2018-07-10T09:22:57.001Z,15.96
2018-07-10T09:25:26.236Z,16.18
2018-07-10T09:30:53.351Z,16.59
2018-07-10T09:33:22.817Z,16.62
2018-07-10T09:35:52.674Z,17.23
2018-07-10T09:38:22.166Z,16.78
2018-07-10T09:40:51.653Z,17.18
2018-07-10T09:43:21.671Z,17.38
2018-07-10T09:45:51.565Z,16.99
2018-07-10T10:29:39.473Z,18.70
2018-07-10T10:32:08.652Z,18.20
2018-07-10T10:34:37.829Z,18.78
2018-07-10T10:37:07.446Z,18.33
2018-07-10T10:39:36.628Z,18.32
2018-07-10T10:42:06.071Z,17.66
2018-07-10T10:44:35.237Z,18.11
2018-07-10T10:47:04.427Z,18.21
2018-07-10T10:49:33.596Z,18.15
2018-07-10T10:52:02.780Z,18.13
2018-07-10T10:54:31.962Z,18.96
2018-07-10T10:57:01.139Z,18.54
2018-07-10T10:59:30.314Z,18.96
2018-07-10T11:01:59.496Z,19.36
2018-07-10T11:04:28.648Z,19.48
2018-07-10T11:06:57.798Z,18.88
2018-07-10T11:09:27.140Z,18.59
2018-07-10T11:11:57.300Z,18.76
2018-07-10T11:14:26.430Z,18.77
2018-07-10T11:16:55.592Z,18.62
2018-07-10T11:19:28.115Z,18.63
2018-07-10T11:22:05.304Z,17.96
2018-07-10T11:25:09.648Z,17.92
2018-07-10T11:28:15.018Z,17.85
2018-07-10T11:30:43.979Z,17.93
2018-07-10T11:33:13.120Z,18.20
2018-07-10T11:35:42.266Z,18.06
2018-07-10T11:38:13.366Z,18.05
2018-07-10T11:40:44.295Z,18.40
2018-07-10T11:43:13.720Z,19.13
2018-07-10T11:45:42.871Z,19.08
2018-07-10T11:48:11.976Z,18.80
2018-07-10T11:50:41.125Z,18.46
2018-07-10T11:53:10.292Z,17.86
2018-07-10T11:55:39.434Z,17.96
2018-07-10T11:58:08.984Z,17.72
2018-07-10T12:00:38.316Z,17.78
2018-07-10T12:03:07.991Z,17.93
2018-07-10T12:05:39.122Z,17.70
2018-07-10T12:08:08.303Z,18.05
2018-07-10T12:10:38.635Z,17.96
2018-07-10T12:13:08.048Z,17.92
2018-07-10T12:15:36.963Z,18.00
2018-07-10T12:18:06.098Z,18.26
2018-07-10T12:20:42.454Z,18.26
2018-07-10T12:23:12.716Z,18.21
2018-07-10T12:25:43.562Z,18.71
2018-07-10T12:28:13.512Z,18.94
2018-07-10T12:30:42.932Z,21.36
2018-07-10T12:33:12.068Z,20.92
2018-07-10T12:35:41.352Z,21.48
2018-07-10T12:38:10.930Z,20.41
2018-07-10T12:40:40.083Z,20.40
2018-07-10T12:43:09.014Z,21.28
2018-07-10T12:45:38.173Z,20.43
2018-07-10T12:48:07.314Z,20.19
2018-07-10T12:50:36.469Z,20.23
2018-07-10T12:53:05.600Z,20.84
2018-07-10T12:55:36.398Z,20.73
2018-07-10T12:58:05.668Z,21.70
2018-07-10T13:00:37.776Z,20.83
2018-07-10T13:03:09.609Z,22.54
2018-07-10T13:05:45.281Z,22.58
2018-07-10T13:08:14.442Z,20.84
2018-07-10T13:10:43.715Z,19.25
2018-07-10T13:13:12.895Z,19.29
2018-07-10T13:15:42.119Z,19.70
2018-07-10T13:18:11.310Z,18.93
2018-07-10T13:20:40.566Z,19.05
2018-07-10T13:23:09.948Z,18.79
2018-07-10T13:25:39.117Z,18.53
2018-07-10T13:28:08.293Z,18.56
2018-07-10T13:30:37.468Z,18.94
2018-07-10T13:33:06.637Z,18.55
2018-07-10T13:35:36.355Z,21.03
2018-07-10T13:38:05.891Z,21.88
2018-07-10T13:40:37.020Z,21.11
2018-07-10T13:43:06.260Z,22.70
2018-07-10T13:45:35.437Z,23.18
2018-07-10T13:48:04.621Z,22.71
2018-07-10T13:50:34.698Z,21.39
2018-07-10T13:53:04.731Z,21.05
2018-07-10T13:55:33.963Z,21.28
2018-07-10T13:58:23.925Z,20.92
2018-07-10T14:00:59.137Z,20.84
2018-07-10T14:03:28.323Z,20.53
2018-07-10T14:05:57.467Z,22.50
2018-07-10T14:08:26.645Z,21.85
2018-07-10T14:10:55.811Z,21.05
2018-07-10T14:13:24.966Z,21.83
2018-07-10T14:15:54.099Z,21.09
2018-07-10T14:18:24.668Z,19.78
2018-07-10T14:20:57.043Z,19.87
2018-07-10T14:23:26.195Z,20.10
2018-07-10T14:25:55.665Z,20.37
2018-07-10T14:28:24.928Z,20.12
2018-07-10T14:30:53.958Z,19.50
2018-07-10T14:33:23.532Z,19.90
2018-07-10T14:35:52.458Z,20.30
2018-07-10T14:38:25.232Z,19.67
2018-07-10T14:40:54.802Z,20.46
2018-07-10T14:43:26.307Z,20.17
2018-07-10T14:46:00.390Z,20.34
2018-07-10T14:48:33.680Z,20.29
2018-07-10T14:51:03.272Z,20.67
2018-07-10T14:53:32.402Z,20.56
2018-07-10T14:56:01.563Z,20.46
2018-07-10T14:58:30.706Z,20.35
2018-07-10T15:00:59.866Z,20.22
2018-07-10T15:03:29.010Z,21.33
2018-07-10T15:05:58.181Z,20.82
2018-07-10T15:08:27.393Z,20.89
2018-07-10T15:10:56.573Z,20.42
2018-07-10T15:13:25.737Z,20.43
2018-07-10T15:16:02.299Z,19.91
2018-07-10T15:18:37.029Z,19.64
2018-07-10T15:21:06.052Z,19.66
2018-07-10T15:23:35.251Z,19.40
2018-07-10T15:26:04.392Z,19.21
2018-07-10T15:28:33.673Z,19.05
2018-07-10T15:31:02.843Z,19.39
2018-07-10T15:33:32.003Z,19.65
2018-07-10T15:36:01.188Z,19.46
2018-07-10T15:38:30.368Z,19.07
2018-07-10T15:40:59.860Z,19.02
2018-07-10T15:43:29.032Z,19.07
2018-07-10T15:45:58.259Z,19.11
2018-07-10T15:48:27.431Z,18.97
2018-07-10T15:50:56.693Z,19.47
2018-07-10T15:53:25.868Z,20.06
2018-07-10T15:55:55.048Z,20.48
2018-07-10T15:58:24.244Z,23.36
2018-07-10T16:00:53.423Z,23.37
2018-07-10T16:03:22.821Z,20.98
2018-07-10T16:05:52.329Z,20.64
2018-07-10T16:08:21.703Z,20.60
2018-07-10T16:10:57.277Z,19.72
2018-07-10T16:13:28.099Z,19.88
2018-07-10T16:15:58.993Z,20.08
2018-07-10T16:18:29.967Z,20.00
2018-07-10T16:21:02.933Z,19.94
2018-07-10T16:23:33.079Z,19.86
2018-07-10T16:26:12.818Z,19.83
2018-07-10T16:28:43.172Z,19.81
2018-07-10T16:31:18.403Z,19.63
2018-07-10T16:33:47.560Z,19.81
2018-07-10T16:36:17.824Z,19.63
2018-07-10T16:38:47.015Z,19.43
2018-07-10T16:41:23.127Z,19.34
2018-07-10T16:43:53.573Z,19.63
2018-07-10T16:46:25.270Z,19.50
2018-07-10T16:49:07.380Z,19.49
2018-07-10T16:51:49.035Z,19.37
2018-07-10T16:54:18.742Z,19.54
2018-07-10T16:56:47.919Z,19.49
2018-07-10T16:59:17.095Z,19.36
2018-07-10T17:01:46.270Z,20.56
2018-07-10T17:04:15.691Z,20.12
2018-07-10T17:06:45.416Z,19.67
2018-07-10T17:09:14.565Z,19.98
2018-07-10T17:11:43.702Z,22.51
2018-07-10T17:14:12.864Z,21.60
2018-07-10T17:16:42.007Z,20.27
2018-07-10T17:19:11.163Z,20.81
2018-07-10T17:21:40.341Z,19.74
2018-07-10T17:24:09.480Z,19.40
2018-07-10T17:26:39.018Z,19.47
2018-07-10T17:29:10.880Z,19.06
2018-07-10T17:31:39.887Z,19.00
2018-07-10T17:34:09.120Z,18.46
2018-07-10T17:36:38.260Z,18.59
2018-07-10T17:39:07.412Z,18.60
2018-07-10T17:41:37.393Z,18.55
2018-07-10T17:44:10.270Z,18.36
2018-07-10T17:46:39.936Z,18.39
2018-07-10T17:49:09.100Z,18.37
2018-07-10T17:51:38.230Z,18.42
2018-07-10T17:54:07.385Z,18.39
2018-07-10T17:56:36.546Z,18.27
2018-07-10T17:59:07.491Z,19.71
2018-07-10T18:01:37.168Z,19.51
2018-07-10T18:04:06.735Z,20.52
2018-07-10T18:06:36.428Z,21.57
2018-07-10T18:09:06.361Z,21.68
2018-07-10T18:11:35.532Z,21.93
2018-07-10T18:14:04.480Z,20.98
2018-07-10T18:16:35.776Z,19.30
2018-07-10T18:19:05.531Z,19.47
2018-07-10T18:21:35.917Z,19.03
2018-07-10T18:24:05.118Z,18.50
2018-07-10T18:26:34.279Z,18.35
2018-07-10T18:29:03.598Z,18.28
2018-07-10T18:31:32.809Z,18.17
2018-07-10T18:34:01.724Z,18.06
2018-07-10T18:36:30.897Z,18.05
2018-07-10T18:39:00.076Z,18.02
2018-07-10T18:41:29.237Z,17.98
2018-07-10T18:43:58.383Z,17.88
2018-07-10T18:46:27.528Z,17.80
2018-07-10T18:48:56.677Z,17.78
2018-07-10T18:51:25.973Z,17.68
2018-07-10T18:53:54.928Z,17.72
2018-07-10T18:56:24.185Z,17.71
2018-07-10T18:59:03.974Z,17.60
2018-07-10T19:02:07.569Z,17.70
2018-07-10T19:04:51.376Z,17.59
2018-07-10T19:07:20.742Z,17.54
2018-07-10T19:09:49.973Z,17.39
2018-07-10T19:12:19.174Z,17.39
2018-07-10T19:14:48.358Z,17.32
2018-07-10T19:17:24.116Z,17.30
2018-07-10T19:19:55.165Z,17.26
2018-07-10T19:22:28.607Z,17.23
2018-07-10T19:25:00.230Z,17.16
2018-07-10T19:27:32.047Z,17.09
2018-07-10T19:30:06.038Z,17.07
2018-07-10T19:32:35.424Z,16.93
2018-07-10T19:35:04.583Z,16.82
2018-07-10T19:37:37.160Z,16.77
2018-07-10T19:40:06.644Z,16.71
2018-07-10T19:42:38.317Z,16.72
2018-07-10T19:45:07.525Z,16.74
2018-07-10T19:47:36.688Z,16.74
2018-07-10T19:50:16.164Z,16.72
2018-07-10T19:52:52.345Z,16.62
2018-07-10T19:55:24.337Z,16.61
2018-07-10T19:58:31.132Z,16.59
2018-07-10T20:01:37.770Z,16.51
2018-07-10T20:04:11.363Z,16.46
2018-07-10T20:07:08.067Z,16.40
2018-07-10T20:09:51.891Z,16.39
2018-07-10T20:12:28.994Z,16.34
2018-07-10T20:15:11.424Z,16.33
2018-07-10T20:17:50.740Z,16.16
2018-07-10T20:20:24.375Z,16.14
2018-07-10T20:23:08.164Z,16.10
2018-07-10T20:26:00.235Z,16.12
2018-07-10T20:29:37.068Z,16.13
2018-07-10T20:32:07.887Z,16.08
2018-07-10T20:35:17.264Z,16.10
2018-07-10T20:37:48.793Z,16.09
2018-07-10T20:40:32.472Z,16.07
2018-07-10T20:43:12.091Z,15.98
2018-07-10T20:45:57.008Z,15.89
2018-07-10T20:48:59.923Z,15.74
2018-07-10T20:51:38.911Z,15.80
2018-07-10T20:54:20.463Z,15.85
2018-07-10T20:57:25.474Z,15.87
2018-07-10T21:00:03.427Z,15.97
2018-07-10T21:04:55.339Z,15.98
2018-07-10T21:07:29.038Z,16.05
2018-07-10T21:10:04.720Z,16.05
2018-07-10T21:12:52.273Z,16.03
2018-07-10T21:15:34.991Z,15.92
2018-07-10T21:18:23.184Z,15.93
2018-07-10T21:21:21.954Z,15.90
2018-07-10T21:23:57.854Z,15.89
2018-07-10T21:27:43.936Z,15.85
2018-07-10T21:30:27.231Z,15.80
2018-07-10T21:33:00.468Z,15.73
2018-07-10T21:35:40.021Z,15.74
2018-07-10T21:38:18.118Z,15.66
2018-07-10T21:40:59.414Z,15.65
2018-07-10T21:43:50.790Z,15.58
2018-07-10T21:46:38.806Z,15.59
2018-07-10T21:49:38.160Z,15.59
2018-07-10T21:52:07.343Z,15.63
2018-07-10T21:54:36.511Z,15.53
2018-07-10T21:57:05.733Z,15.59
2018-07-10T21:59:38.520Z,15.60
2018-07-10T22:02:10.303Z,15.63
2018-07-10T22:04:40.155Z,15.61
2018-07-10T22:07:12.779Z,15.65
2018-07-10T22:09:42.555Z,15.64
2018-07-10T22:12:15.256Z,15.66
2018-07-10T22:14:45.348Z,15.68
2018-07-10T22:17:17.883Z,15.67
2018-07-10T22:19:49.179Z,15.67
2018-07-10T22:22:18.984Z,15.52
2018-07-10T22:24:49.927Z,15.52
2018-07-10T22:27:19.412Z,15.44
2018-07-10T22:29:53.985Z,15.56
2018-07-10T22:32:30.998Z,15.43
2018-07-10T22:35:00.159Z,15.40
2018-07-10T22:37:29.334Z,15.35
2018-07-10T22:39:58.494Z,15.14
2018-07-10T22:42:27.683Z,15.03
2018-07-10T22:44:58.753Z,15.12
2018-07-10T22:47:31.378Z,15.19
2018-07-10T22:50:07.687Z,15.37
2018-07-10T22:52:44.885Z,15.43
2018-07-10T22:55:17.543Z,15.32
2018-07-10T22:57:47.280Z,15.44
2018-07-10T23:00:23.529Z,15.25
2018-07-10T23:02:52.695Z,14.94
2018-07-10T23:05:21.831Z,14.43
2018-07-10T23:07:50.736Z,14.17
2018-07-10T23:10:19.870Z,14.03
2018-07-10T23:12:49.631Z,13.97
2018-07-10T23:15:18.559Z,13.74
2018-07-10T23:17:47.684Z,13.62
2018-07-10T23:20:17.028Z,13.62
2018-07-10T23:22:56.648Z,13.57
2018-07-10T23:25:26.594Z,13.46
2018-07-10T23:28:01.284Z,13.40
2018-07-10T23:30:33.982Z,13.35
2018-07-10T23:33:02.902Z,13.39
2018-07-10T23:35:33.821Z,13.17
2018-07-10T23:38:19.337Z,13.34
2018-07-10T23:40:48.900Z,13.22
2018-07-10T23:43:19.007Z,13.06
2018-07-10T23:45:48.591Z,13.05
2018-07-10T23:48:17.681Z,13.01
2018-07-10T23:50:46.898Z,12.94
2018-07-10T23:53:55.744Z,12.92
2018-07-10T23:56:24.884Z,12.96
2018-07-10T23:58:54.011Z,12.83
